sensor_id;sensor_type;location;lat;lon;timestamp;temperature;humidity
81136;DHT22;70622;50.886;3.890;2024-03-02T00:01:25;7.20;99.90
81136;DHT22;70622;50.886;3.890;2024-03-02T00:04:56;7.10;99.90
81136;DHT22;70622;50.886;3.890;2024-03-02T00:08:35;7.30;99.90
81136;DHT22;70622;50.886;3.890;2024-03-02T00:12:15;7.30;99.90
81136;DHT22;70622;50.886;3.890;2024-03-02T00:15:58;7.20;99.90
81136;DHT22;70622;50.886;3.890;2024-03-02T00:19:07;7.20;99.90
81136;DHT22;70622;50.886;3.890;2024-03-02T00:22:40;7.20;99.90
81136;DHT22;70622;50.886;3.890;2024-03-02T00:26:11;7.20;99.90
81136;DHT22;70622;50.886;3.890;2024-03-02T00:29:53;7.30;99.90
81136;DHT22;70622;50.886;3.890;2024-03-02T00:33:21;7.30;99.90
81136;DHT22;70622;50.886;3.890;2024-03-02T00:36:53;7.30;99.90
81136;DHT22;70622;50.886;3.890;2024-03-02T00:40:25;7.20;99.90
81136;DHT22;70622;50.886;3.890;2024-03-02T00:44:09;7.10;99.90
81136;DHT22;70622;50.886;3.890;2024-03-02T00:47:28;7.20;99.90
81136;DHT22;70622;50.886;3.890;2024-03-02T00:51:03;7.20;99.90
81136;DHT22;70622;50.886;3.890;2024-03-02T00:54:35;7.10;99.90
81136;DHT22;70622;50.886;3.890;2024-03-02T00:58:05;7.00;99.90
81136;DHT22;70622;50.886;3.890;2024-03-02T01:01:42;6.80;99.90
81136;DHT22;70622;50.886;3.890;2024-03-02T01:05:12;6.90;99.90
81136;DHT22;70622;50.886;3.890;2024-03-02T01:08:29;6.90;99.90
81136;DHT22;70622;50.886;3.890;2024-03-02T01:12:01;6.90;99.90
81136;DHT22;70622;50.886;3.890;2024-03-02T01:15:30;7.00;99.90
81136;DHT22;70622;50.886;3.890;2024-03-02T01:19:00;7.00;99.90
81136;DHT22;70622;50.886;3.890;2024-03-02T01:22:39;6.80;99.90
81136;DHT22;70622;50.886;3.890;2024-03-02T01:26:18;6.80;99.90
81136;DHT22;70622;50.886;3.890;2024-03-02T01:30:08;6.70;99.90
81136;DHT22;70622;50.886;3.890;2024-03-02T01:33:38;6.60;99.90
81136;DHT22;70622;50.886;3.890;2024-03-02T01:37:13;6.50;99.90
81136;DHT22;70622;50.886;3.890;2024-03-02T01:40:44;6.40;99.90
81136;DHT22;70622;50.886;3.890;2024-03-02T01:44:12;6.30;99.90
81136;DHT22;70622;50.886;3.890;2024-03-02T02:00:18;6.30;99.90
81136;DHT22;70622;50.886;3.890;2024-03-02T02:04:03;6.50;99.90
81136;DHT22;70622;50.886;3.890;2024-03-02T02:07:41;6.70;99.90
81136;DHT22;70622;50.886;3.890;2024-03-02T02:11:06;6.70;99.90
81136;DHT22;70622;50.886;3.890;2024-03-02T02:14:47;6.80;99.90
81136;DHT22;70622;50.886;3.890;2024-03-02T02:18:36;6.90;99.90
81136;DHT22;70622;50.886;3.890;2024-03-02T02:22:11;6.90;99.90
81136;DHT22;70622;50.886;3.890;2024-03-02T02:25:44;6.80;99.90
81136;DHT22;70622;50.886;3.890;2024-03-02T02:29:13;7.00;99.90
81136;DHT22;70622;50.886;3.890;2024-03-02T02:32:48;7.00;99.90
81136;DHT22;70622;50.886;3.890;2024-03-02T02:36:17;7.00;99.90
81136;DHT22;70622;50.886;3.890;2024-03-02T02:39:47;7.00;99.90
81136;DHT22;70622;50.886;3.890;2024-03-02T02:43:20;7.20;99.90
81136;DHT22;70622;50.886;3.890;2024-03-02T02:46:58;7.30;99.90
81136;DHT22;70622;50.886;3.890;2024-03-02T02:50:38;7.20;99.90
81136;DHT22;70622;50.886;3.890;2024-03-02T02:53:39;7.20;99.90
81136;DHT22;70622;50.886;3.890;2024-03-02T02:57:24;7.20;99.90
81136;DHT22;70622;50.886;3.890;2024-03-02T03:01:23;7.10;99.90
81136;DHT22;70622;50.886;3.890;2024-03-02T03:04:52;7.00;99.90
81136;DHT22;70622;50.886;3.890;2024-03-02T03:08:27;6.90;99.90
81136;DHT22;70622;50.886;3.890;2024-03-02T03:11:00;7.00;99.90
81136;DHT22;70622;50.886;3.890;2024-03-02T03:13:26;7.10;99.90
81136;DHT22;70622;50.886;3.890;2024-03-02T03:15:52;7.10;99.90
81136;DHT22;70622;50.886;3.890;2024-03-02T03:18:18;7.20;99.90
81136;DHT22;70622;50.886;3.890;2024-03-02T03:20:44;7.30;99.90
81136;DHT22;70622;50.886;3.890;2024-03-02T03:23:09;7.30;99.90
81136;DHT22;70622;50.886;3.890;2024-03-02T03:25:40;7.30;99.90
81136;DHT22;70622;50.886;3.890;2024-03-02T03:28:06;7.30;99.90
81136;DHT22;70622;50.886;3.890;2024-03-02T03:30:32;7.20;99.90
81136;DHT22;70622;50.886;3.890;2024-03-02T03:32:57;7.20;99.90
81136;DHT22;70622;50.886;3.890;2024-03-02T03:35:23;7.20;99.90
81136;DHT22;70622;50.886;3.890;2024-03-02T03:37:48;7.20;99.90
81136;DHT22;70622;50.886;3.890;2024-03-02T03:40:14;7.20;99.90
81136;DHT22;70622;50.886;3.890;2024-03-02T03:42:40;7.30;99.90
81136;DHT22;70622;50.886;3.890;2024-03-02T03:45:06;7.30;99.90
81136;DHT22;70622;50.886;3.890;2024-03-02T03:47:32;7.30;99.90
81136;DHT22;70622;50.886;3.890;2024-03-02T03:49:58;7.30;99.90
81136;DHT22;70622;50.886;3.890;2024-03-02T03:52:23;7.30;99.90
81136;DHT22;70622;50.886;3.890;2024-03-02T03:54:50;7.30;99.90
81136;DHT22;70622;50.886;3.890;2024-03-02T03:57:15;7.40;99.90
81136;DHT22;70622;50.886;3.890;2024-03-02T03:59:41;7.40;99.90
81136;DHT22;70622;50.886;3.890;2024-03-02T04:02:08;7.40;99.90
81136;DHT22;70622;50.886;3.890;2024-03-02T04:04:33;7.40;99.90
81136;DHT22;70622;50.886;3.890;2024-03-02T04:06:59;7.50;99.90
81136;DHT22;70622;50.886;3.890;2024-03-02T04:09:24;7.50;99.90
81136;DHT22;70622;50.886;3.890;2024-03-02T04:11:51;7.40;99.90
81136;DHT22;70622;50.886;3.890;2024-03-02T04:14:16;7.50;99.90
81136;DHT22;70622;50.886;3.890;2024-03-02T04:16:42;7.50;99.90
81136;DHT22;70622;50.886;3.890;2024-03-02T04:19:08;7.40;99.90
81136;DHT22;70622;50.886;3.890;2024-03-02T04:21:33;7.40;99.90
81136;DHT22;70622;50.886;3.890;2024-03-02T04:23:59;7.30;99.90
81136;DHT22;70622;50.886;3.890;2024-03-02T04:26:25;7.30;99.90
81136;DHT22;70622;50.886;3.890;2024-03-02T04:28:51;7.30;99.90
81136;DHT22;70622;50.886;3.890;2024-03-02T04:31:17;7.20;99.90
81136;DHT22;70622;50.886;3.890;2024-03-02T04:33:43;7.20;99.90
81136;DHT22;70622;50.886;3.890;2024-03-02T04:36:08;7.10;99.90
81136;DHT22;70622;50.886;3.890;2024-03-02T04:38:36;6.90;99.90
81136;DHT22;70622;50.886;3.890;2024-03-02T04:41:01;6.80;99.90
81136;DHT22;70622;50.886;3.890;2024-03-02T04:43:27;6.60;99.90
81136;DHT22;70622;50.886;3.890;2024-03-02T04:45:52;6.60;99.90
81136;DHT22;70622;50.886;3.890;2024-03-02T04:48:18;6.50;99.90
81136;DHT22;70622;50.886;3.890;2024-03-02T04:50:44;6.50;99.90
81136;DHT22;70622;50.886;3.890;2024-03-02T04:53:10;6.40;99.90
81136;DHT22;70622;50.886;3.890;2024-03-02T04:55:36;6.30;99.90
81136;DHT22;70622;50.886;3.890;2024-03-02T04:58:11;6.30;99.90
81136;DHT22;70622;50.886;3.890;2024-03-02T05:00:36;6.50;99.90
81136;DHT22;70622;50.886;3.890;2024-03-02T05:03:03;6.30;99.90
81136;DHT22;70622;50.886;3.890;2024-03-02T05:05:28;6.40;99.90
81136;DHT22;70622;50.886;3.890;2024-03-02T05:07:54;6.30;99.90
81136;DHT22;70622;50.886;3.890;2024-03-02T05:10:20;6.20;99.90
81136;DHT22;70622;50.886;3.890;2024-03-02T05:12:45;6.20;99.90
81136;DHT22;70622;50.886;3.890;2024-03-02T05:15:21;6.20;99.90
81136;DHT22;70622;50.886;3.890;2024-03-02T05:17:47;6.20;99.90
81136;DHT22;70622;50.886;3.890;2024-03-02T05:20:12;6.10;99.90
81136;DHT22;70622;50.886;3.890;2024-03-02T05:22:38;6.10;99.90
81136;DHT22;70622;50.886;3.890;2024-03-02T05:25:05;6.00;99.90
81136;DHT22;70622;50.886;3.890;2024-03-02T05:27:31;6.00;99.90
81136;DHT22;70622;50.886;3.890;2024-03-02T05:29:59;6.00;99.90
81136;DHT22;70622;50.886;3.890;2024-03-02T05:32:24;5.90;99.90
81136;DHT22;70622;50.886;3.890;2024-03-02T05:34:50;5.90;99.90
81136;DHT22;70622;50.886;3.890;2024-03-02T05:37:16;5.90;99.90
81136;DHT22;70622;50.886;3.890;2024-03-02T05:39:42;5.80;99.90
81136;DHT22;70622;50.886;3.890;2024-03-02T05:42:09;5.90;99.90
81136;DHT22;70622;50.886;3.890;2024-03-02T05:44:35;6.00;99.90
81136;DHT22;70622;50.886;3.890;2024-03-02T05:47:01;5.90;99.90
81136;DHT22;70622;50.886;3.890;2024-03-02T05:49:27;5.90;99.90
81136;DHT22;70622;50.886;3.890;2024-03-02T05:51:52;5.80;99.90
81136;DHT22;70622;50.886;3.890;2024-03-02T05:54:18;5.90;99.90
81136;DHT22;70622;50.886;3.890;2024-03-02T05:56:44;5.80;99.90
81136;DHT22;70622;50.886;3.890;2024-03-02T05:59:09;5.70;99.90
81136;DHT22;70622;50.886;3.890;2024-03-02T06:01:39;5.70;99.90
81136;DHT22;70622;50.886;3.890;2024-03-02T06:04:05;5.60;99.90
81136;DHT22;70622;50.886;3.890;2024-03-02T06:06:31;5.60;99.90
81136;DHT22;70622;50.886;3.890;2024-03-02T06:09:00;5.70;99.90
81136;DHT22;70622;50.886;3.890;2024-03-02T06:11:26;5.70;99.90
81136;DHT22;70622;50.886;3.890;2024-03-02T06:13:51;5.60;99.90
81136;DHT22;70622;50.886;3.890;2024-03-02T06:16:17;5.60;99.90
81136;DHT22;70622;50.886;3.890;2024-03-02T06:18:42;5.60;99.90
81136;DHT22;70622;50.886;3.890;2024-03-02T06:21:08;5.60;99.90
81136;DHT22;70622;50.886;3.890;2024-03-02T06:23:34;5.60;99.90
81136;DHT22;70622;50.886;3.890;2024-03-02T06:26:00;5.60;99.90
81136;DHT22;70622;50.886;3.890;2024-03-02T06:28:26;5.60;99.90
81136;DHT22;70622;50.886;3.890;2024-03-02T06:30:52;5.50;99.90
81136;DHT22;70622;50.886;3.890;2024-03-02T06:33:17;5.50;99.90
81136;DHT22;70622;50.886;3.890;2024-03-02T06:35:43;5.40;99.90
81136;DHT22;70622;50.886;3.890;2024-03-02T06:38:08;5.50;99.90
81136;DHT22;70622;50.886;3.890;2024-03-02T06:40:34;5.50;99.90
81136;DHT22;70622;50.886;3.890;2024-03-02T06:42:59;5.60;99.90
81136;DHT22;70622;50.886;3.890;2024-03-02T06:45:25;5.60;99.90
81136;DHT22;70622;50.886;3.890;2024-03-02T06:47:51;5.60;99.90
81136;DHT22;70622;50.886;3.890;2024-03-02T06:50:16;5.60;99.90
81136;DHT22;70622;50.886;3.890;2024-03-02T06:52:42;5.60;99.90
81136;DHT22;70622;50.886;3.890;2024-03-02T06:55:08;5.70;99.90
81136;DHT22;70622;50.886;3.890;2024-03-02T06:57:34;5.70;99.90
81136;DHT22;70622;50.886;3.890;2024-03-02T07:00:00;5.70;99.90
81136;DHT22;70622;50.886;3.890;2024-03-02T07:02:25;5.80;99.90
81136;DHT22;70622;50.886;3.890;2024-03-02T07:04:53;5.80;99.90
81136;DHT22;70622;50.886;3.890;2024-03-02T07:07:18;5.80;99.90
81136;DHT22;70622;50.886;3.890;2024-03-02T07:09:44;5.90;99.90
81136;DHT22;70622;50.886;3.890;2024-03-02T07:12:10;5.80;99.90
81136;DHT22;70622;50.886;3.890;2024-03-02T07:14:35;5.80;99.90
81136;DHT22;70622;50.886;3.890;2024-03-02T07:17:21;5.90;99.90
81136;DHT22;70622;50.886;3.890;2024-03-02T07:19:46;6.00;99.90
81136;DHT22;70622;50.886;3.890;2024-03-02T07:22:12;6.00;99.90
81136;DHT22;70622;50.886;3.890;2024-03-02T07:24:42;6.10;99.90
81136;DHT22;70622;50.886;3.890;2024-03-02T07:27:09;6.10;99.90
81136;DHT22;70622;50.886;3.890;2024-03-02T07:29:35;6.20;99.90
81136;DHT22;70622;50.886;3.890;2024-03-02T07:32:01;6.00;99.90
81136;DHT22;70622;50.886;3.890;2024-03-02T07:34:26;6.20;99.90
81136;DHT22;70622;50.886;3.890;2024-03-02T07:36:52;6.20;99.90
81136;DHT22;70622;50.886;3.890;2024-03-02T07:39:18;6.20;99.90
81136;DHT22;70622;50.886;3.890;2024-03-02T07:41:45;6.30;99.90
81136;DHT22;70622;50.886;3.890;2024-03-02T07:44:11;6.40;99.90
81136;DHT22;70622;50.886;3.890;2024-03-02T07:46:40;6.50;99.90
81136;DHT22;70622;50.886;3.890;2024-03-02T07:49:06;6.50;99.90
81136;DHT22;70622;50.886;3.890;2024-03-02T07:51:31;6.50;99.90
81136;DHT22;70622;50.886;3.890;2024-03-02T07:53:57;6.60;99.90
81136;DHT22;70622;50.886;3.890;2024-03-02T07:56:23;6.60;99.90
81136;DHT22;70622;50.886;3.890;2024-03-02T07:58:49;6.50;99.90
81136;DHT22;70622;50.886;3.890;2024-03-02T08:01:15;6.70;99.90
81136;DHT22;70622;50.886;3.890;2024-03-02T08:03:40;6.70;99.90
81136;DHT22;70622;50.886;3.890;2024-03-02T08:06:06;6.80;99.90
81136;DHT22;70622;50.886;3.890;2024-03-02T08:08:32;6.80;99.90
81136;DHT22;70622;50.886;3.890;2024-03-02T08:10:57;6.90;99.90
81136;DHT22;70622;50.886;3.890;2024-03-02T08:13:23;6.90;99.90
81136;DHT22;70622;50.886;3.890;2024-03-02T08:15:49;7.00;99.90
81136;DHT22;70622;50.886;3.890;2024-03-02T08:18:14;7.10;99.90
81136;DHT22;70622;50.886;3.890;2024-03-02T08:20:40;7.10;99.90
81136;DHT22;70622;50.886;3.890;2024-03-02T08:23:06;7.20;99.90
81136;DHT22;70622;50.886;3.890;2024-03-02T08:25:33;7.20;99.90
81136;DHT22;70622;50.886;3.890;2024-03-02T08:27:59;7.20;99.90
81136;DHT22;70622;50.886;3.890;2024-03-02T08:30:25;7.10;99.90
81136;DHT22;70622;50.886;3.890;2024-03-02T08:32:50;7.20;99.90
81136;DHT22;70622;50.886;3.890;2024-03-02T08:35:16;7.20;99.90
81136;DHT22;70622;50.886;3.890;2024-03-02T08:37:42;7.30;99.90
81136;DHT22;70622;50.886;3.890;2024-03-02T08:40:09;7.40;99.90
81136;DHT22;70622;50.886;3.890;2024-03-02T08:42:36;7.40;99.90
81136;DHT22;70622;50.886;3.890;2024-03-02T08:45:01;7.50;99.90
81136;DHT22;70622;50.886;3.890;2024-03-02T08:47:27;7.40;99.90
81136;DHT22;70622;50.886;3.890;2024-03-02T08:49:53;7.50;99.90
81136;DHT22;70622;50.886;3.890;2024-03-02T08:52:19;7.80;99.90
81136;DHT22;70622;50.886;3.890;2024-03-02T08:54:44;8.20;99.90
81136;DHT22;70622;50.886;3.890;2024-03-02T08:57:10;8.40;99.90
81136;DHT22;70622;50.886;3.890;2024-03-02T08:59:36;8.70;99.90
81136;DHT22;70622;50.886;3.890;2024-03-02T09:02:01;9.00;99.90
81136;DHT22;70622;50.886;3.890;2024-03-02T09:04:28;9.00;99.90
81136;DHT22;70622;50.886;3.890;2024-03-02T09:06:54;9.10;99.90
81136;DHT22;70622;50.886;3.890;2024-03-02T09:09:19;9.20;99.90
81136;DHT22;70622;50.886;3.890;2024-03-02T09:11:46;9.30;99.90
81136;DHT22;70622;50.886;3.890;2024-03-02T09:14:12;9.20;99.90
81136;DHT22;70622;50.886;3.890;2024-03-02T09:16:38;9.20;99.90
81136;DHT22;70622;50.886;3.890;2024-03-02T09:19:03;9.20;99.90
81136;DHT22;70622;50.886;3.890;2024-03-02T09:21:29;9.30;99.90
81136;DHT22;70622;50.886;3.890;2024-03-02T09:23:55;9.60;99.90
81136;DHT22;70622;50.886;3.890;2024-03-02T09:26:22;10.00;99.90
81136;DHT22;70622;50.886;3.890;2024-03-02T09:28:50;10.00;99.90
81136;DHT22;70622;50.886;3.890;2024-03-02T09:31:15;10.30;99.90
81136;DHT22;70622;50.886;3.890;2024-03-02T09:33:41;10.50;99.90
81136;DHT22;70622;50.886;3.890;2024-03-02T09:36:18;10.70;99.90
81136;DHT22;70622;50.886;3.890;2024-03-02T09:38:44;10.60;99.90
81136;DHT22;70622;50.886;3.890;2024-03-02T09:41:09;10.30;99.90
81136;DHT22;70622;50.886;3.890;2024-03-02T09:43:35;10.30;99.90
81136;DHT22;70622;50.886;3.890;2024-03-02T09:46:01;10.20;99.90
81136;DHT22;70622;50.886;3.890;2024-03-02T09:48:27;9.90;99.90
81136;DHT22;70622;50.886;3.890;2024-03-02T09:50:52;10.00;99.90
81136;DHT22;70622;50.886;3.890;2024-03-02T09:53:18;10.10;99.90
81136;DHT22;70622;50.886;3.890;2024-03-02T09:55:47;10.20;99.90
81136;DHT22;70622;50.886;3.890;2024-03-02T09:58:13;10.10;99.90
81136;DHT22;70622;50.886;3.890;2024-03-02T10:00:39;10.30;99.90
81136;DHT22;70622;50.886;3.890;2024-03-02T10:03:04;10.30;99.90
81136;DHT22;70622;50.886;3.890;2024-03-02T10:05:31;10.30;99.90
81136;DHT22;70622;50.886;3.890;2024-03-02T10:08:00;10.30;99.90
81136;DHT22;70622;50.886;3.890;2024-03-02T10:10:35;10.30;99.90
81136;DHT22;70622;50.886;3.890;2024-03-02T10:13:06;10.60;99.90
81136;DHT22;70622;50.886;3.890;2024-03-02T10:15:33;10.70;99.90
81136;DHT22;70622;50.886;3.890;2024-03-02T10:17:58;10.90;99.90
81136;DHT22;70622;50.886;3.890;2024-03-02T10:20:25;11.00;99.90
81136;DHT22;70622;50.886;3.890;2024-03-02T10:22:51;11.10;99.90
81136;DHT22;70622;50.886;3.890;2024-03-02T10:25:33;11.20;99.90
81136;DHT22;70622;50.886;3.890;2024-03-02T10:28:00;11.40;99.90
81136;DHT22;70622;50.886;3.890;2024-03-02T10:30:27;11.40;99.90
81136;DHT22;70622;50.886;3.890;2024-03-02T10:32:54;11.60;99.90
81136;DHT22;70622;50.886;3.890;2024-03-02T10:35:21;11.70;99.90
81136;DHT22;70622;50.886;3.890;2024-03-02T10:37:48;12.00;99.90
81136;DHT22;70622;50.886;3.890;2024-03-02T10:40:14;12.30;99.90
81136;DHT22;70622;50.886;3.890;2024-03-02T10:42:41;12.40;99.90
81136;DHT22;70622;50.886;3.890;2024-03-02T10:45:09;12.40;99.90
81136;DHT22;70622;50.886;3.890;2024-03-02T10:47:37;12.40;99.90
81136;DHT22;70622;50.886;3.890;2024-03-02T10:50:04;12.60;99.90
81136;DHT22;70622;50.886;3.890;2024-03-02T10:52:35;12.70;99.90
81136;DHT22;70622;50.886;3.890;2024-03-02T10:55:01;12.80;99.90
81136;DHT22;70622;50.886;3.890;2024-03-02T10:57:36;13.00;99.90
81136;DHT22;70622;50.886;3.890;2024-03-02T11:00:06;13.00;99.90
81136;DHT22;70622;50.886;3.890;2024-03-02T11:02:42;13.00;99.90
81136;DHT22;70622;50.886;3.890;2024-03-02T11:05:08;13.00;99.90
81136;DHT22;70622;50.886;3.890;2024-03-02T11:07:37;12.90;99.90
81136;DHT22;70622;50.886;3.890;2024-03-02T11:10:05;12.90;99.90
81136;DHT22;70622;50.886;3.890;2024-03-02T11:12:39;12.90;99.90
81136;DHT22;70622;50.886;3.890;2024-03-02T11:15:11;12.80;99.90
81136;DHT22;70622;50.886;3.890;2024-03-02T11:17:40;12.70;99.90
81136;DHT22;70622;50.886;3.890;2024-03-02T11:20:08;12.90;99.90
81136;DHT22;70622;50.886;3.890;2024-03-02T11:22:36;12.70;99.90
81136;DHT22;70622;50.886;3.890;2024-03-02T11:25:01;12.80;99.90
81136;DHT22;70622;50.886;3.890;2024-03-02T11:33:13;13.00;99.90
81136;DHT22;70622;50.886;3.890;2024-03-02T11:35:42;13.30;99.90
81136;DHT22;70622;50.886;3.890;2024-03-02T11:38:09;13.60;99.90
81136;DHT22;70622;50.886;3.890;2024-03-02T11:40:35;13.50;99.90
81136;DHT22;70622;50.886;3.890;2024-03-02T11:43:01;13.60;99.90
81136;DHT22;70622;50.886;3.890;2024-03-02T11:45:27;13.50;99.90
81136;DHT22;70622;50.886;3.890;2024-03-02T11:47:56;13.40;99.90
81136;DHT22;70622;50.886;3.890;2024-03-02T11:53:19;13.10;99.90
81136;DHT22;70622;50.886;3.890;2024-03-02T11:55:44;13.30;99.90
81136;DHT22;70622;50.886;3.890;2024-03-02T11:58:12;12.80;99.90
81136;DHT22;70622;50.886;3.890;2024-03-02T12:00:39;12.90;99.90
81136;DHT22;70622;50.886;3.890;2024-03-02T12:03:07;13.10;99.90
81136;DHT22;70622;50.886;3.890;2024-03-02T12:05:33;13.00;99.90
81136;DHT22;70622;50.886;3.890;2024-03-02T12:08:01;13.10;99.90
81136;DHT22;70622;50.886;3.890;2024-03-02T12:10:27;13.00;99.90
81136;DHT22;70622;50.886;3.890;2024-03-02T12:12:57;12.90;99.90
81136;DHT22;70622;50.886;3.890;2024-03-02T12:15:27;12.70;99.90
81136;DHT22;70622;50.886;3.890;2024-03-02T12:17:56;12.70;99.90
81136;DHT22;70622;50.886;3.890;2024-03-02T12:20:22;12.80;99.90
81136;DHT22;70622;50.886;3.890;2024-03-02T12:22:50;13.00;99.90
81136;DHT22;70622;50.886;3.890;2024-03-02T12:25:17;13.10;99.90
81136;DHT22;70622;50.886;3.890;2024-03-02T12:27:43;13.20;99.90
81136;DHT22;70622;50.886;3.890;2024-03-02T12:30:09;13.10;99.90
81136;DHT22;70622;50.886;3.890;2024-03-02T12:32:37;13.00;99.90
81136;DHT22;70622;50.886;3.890;2024-03-02T12:35:05;12.90;99.90
81136;DHT22;70622;50.886;3.890;2024-03-02T12:37:31;12.70;99.90
81136;DHT22;70622;50.886;3.890;2024-03-02T12:39:56;12.60;99.90
81136;DHT22;70622;50.886;3.890;2024-03-02T12:42:23;12.50;99.90
81136;DHT22;70622;50.886;3.890;2024-03-02T12:44:51;12.70;99.90
81136;DHT22;70622;50.886;3.890;2024-03-02T12:47:19;12.50;99.90
81136;DHT22;70622;50.886;3.890;2024-03-02T12:49:45;12.40;99.90
81136;DHT22;70622;50.886;3.890;2024-03-02T12:52:13;12.30;99.90
81136;DHT22;70622;50.886;3.890;2024-03-02T12:54:38;12.30;99.90
81136;DHT22;70622;50.886;3.890;2024-03-02T12:57:04;12.20;99.90
81136;DHT22;70622;50.886;3.890;2024-03-02T12:59:30;12.00;99.90
81136;DHT22;70622;50.886;3.890;2024-03-02T13:01:57;12.00;99.90
81136;DHT22;70622;50.886;3.890;2024-03-02T13:04:27;11.90;99.90
81136;DHT22;70622;50.886;3.890;2024-03-02T13:06:55;11.70;99.90
81136;DHT22;70622;50.886;3.890;2024-03-02T13:09:23;11.80;99.90
81136;DHT22;70622;50.886;3.890;2024-03-02T13:11:49;11.90;99.90
81136;DHT22;70622;50.886;3.890;2024-03-02T13:14:15;11.90;99.90
81136;DHT22;70622;50.886;3.890;2024-03-02T13:16:41;12.10;99.90
81136;DHT22;70622;50.886;3.890;2024-03-02T13:19:08;12.20;99.90
81136;DHT22;70622;50.886;3.890;2024-03-02T13:21:34;12.20;99.90
81136;DHT22;70622;50.886;3.890;2024-03-02T13:23:59;12.10;99.90
81136;DHT22;70622;50.886;3.890;2024-03-02T13:26:25;11.90;99.90
81136;DHT22;70622;50.886;3.890;2024-03-02T13:28:51;11.70;99.90
81136;DHT22;70622;50.886;3.890;2024-03-02T13:31:17;11.50;99.90
81136;DHT22;70622;50.886;3.890;2024-03-02T13:33:42;11.40;99.90
81136;DHT22;70622;50.886;3.890;2024-03-02T13:36:08;11.50;99.90
81136;DHT22;70622;50.886;3.890;2024-03-02T13:38:34;11.50;99.90
81136;DHT22;70622;50.886;3.890;2024-03-02T13:40:59;11.70;99.90
81136;DHT22;70622;50.886;3.890;2024-03-02T13:43:26;11.90;99.90
81136;DHT22;70622;50.886;3.890;2024-03-02T13:45:52;12.10;99.90
81136;DHT22;70622;50.886;3.890;2024-03-02T13:48:19;12.40;99.90
81136;DHT22;70622;50.886;3.890;2024-03-02T13:50:44;12.60;99.90
81136;DHT22;70622;50.886;3.890;2024-03-02T13:53:11;12.60;99.90
81136;DHT22;70622;50.886;3.890;2024-03-02T13:55:37;12.60;99.90
81136;DHT22;70622;50.886;3.890;2024-03-02T13:58:03;12.80;99.90
81136;DHT22;70622;50.886;3.890;2024-03-02T14:00:29;12.90;99.90
81136;DHT22;70622;50.886;3.890;2024-03-02T14:02:55;12.80;99.90
81136;DHT22;70622;50.886;3.890;2024-03-02T14:05:21;12.90;99.90
81136;DHT22;70622;50.886;3.890;2024-03-02T14:07:46;12.90;99.90
81136;DHT22;70622;50.886;3.890;2024-03-02T14:10:12;12.60;99.90
81136;DHT22;70622;50.886;3.890;2024-03-02T14:12:41;12.60;99.90
81136;DHT22;70622;50.886;3.890;2024-03-02T14:15:07;12.50;99.90
81136;DHT22;70622;50.886;3.890;2024-03-02T14:17:32;12.30;99.90
81136;DHT22;70622;50.886;3.890;2024-03-02T14:19:59;12.30;99.90
81136;DHT22;70622;50.886;3.890;2024-03-02T14:22:25;12.30;99.90
81136;DHT22;70622;50.886;3.890;2024-03-02T14:24:50;12.30;99.90
81136;DHT22;70622;50.886;3.890;2024-03-02T14:27:16;12.30;99.90
81136;DHT22;70622;50.886;3.890;2024-03-02T14:29:43;12.30;99.90
81136;DHT22;70622;50.886;3.890;2024-03-02T14:32:09;12.30;99.90
81136;DHT22;70622;50.886;3.890;2024-03-02T14:34:35;12.40;99.90
81136;DHT22;70622;50.886;3.890;2024-03-02T14:37:00;12.30;99.90
81136;DHT22;70622;50.886;3.890;2024-03-02T14:39:26;12.20;99.90
81136;DHT22;70622;50.886;3.890;2024-03-02T14:41:52;12.10;99.90
81136;DHT22;70622;50.886;3.890;2024-03-02T14:44:18;12.10;99.90
81136;DHT22;70622;50.886;3.890;2024-03-02T14:46:46;12.20;99.90
81136;DHT22;70622;50.886;3.890;2024-03-02T14:49:13;11.90;99.90
81136;DHT22;70622;50.886;3.890;2024-03-02T14:51:38;11.90;99.90
81136;DHT22;70622;50.886;3.890;2024-03-02T14:54:04;12.00;99.90
81136;DHT22;70622;50.886;3.890;2024-03-02T14:56:30;12.00;99.90
81136;DHT22;70622;50.886;3.890;2024-03-02T14:58:55;12.20;99.90
81136;DHT22;70622;50.886;3.890;2024-03-02T15:01:21;12.30;99.90
81136;DHT22;70622;50.886;3.890;2024-03-02T15:03:49;12.40;99.90
81136;DHT22;70622;50.886;3.890;2024-03-02T15:06:15;12.60;99.90
81136;DHT22;70622;50.886;3.890;2024-03-02T15:08:41;12.50;99.90
81136;DHT22;70622;50.886;3.890;2024-03-02T15:11:08;12.60;99.90
81136;DHT22;70622;50.886;3.890;2024-03-02T15:13:34;12.50;99.90
81136;DHT22;70622;50.886;3.890;2024-03-02T15:16:00;12.40;99.90
81136;DHT22;70622;50.886;3.890;2024-03-02T15:18:25;12.50;99.90
81136;DHT22;70622;50.886;3.890;2024-03-02T15:20:52;12.50;99.90
81136;DHT22;70622;50.886;3.890;2024-03-02T15:23:18;12.60;99.90
81136;DHT22;70622;50.886;3.890;2024-03-02T15:25:43;12.60;99.90
81136;DHT22;70622;50.886;3.890;2024-03-02T15:28:09;12.60;99.90
81136;DHT22;70622;50.886;3.890;2024-03-02T15:30:34;12.50;99.90
81136;DHT22;70622;50.886;3.890;2024-03-02T15:33:00;12.40;99.90
81136;DHT22;70622;50.886;3.890;2024-03-02T15:35:26;12.30;99.90
81136;DHT22;70622;50.886;3.890;2024-03-02T15:37:51;12.50;99.90
81136;DHT22;70622;50.886;3.890;2024-03-02T15:40:17;12.50;99.90
81136;DHT22;70622;50.886;3.890;2024-03-02T15:42:43;12.40;99.90
81136;DHT22;70622;50.886;3.890;2024-03-02T15:45:09;12.30;99.90
81136;DHT22;70622;50.886;3.890;2024-03-02T15:47:34;12.40;99.90
81136;DHT22;70622;50.886;3.890;2024-03-02T15:50:02;12.50;99.90
81136;DHT22;70622;50.886;3.890;2024-03-02T15:52:28;12.50;99.90
81136;DHT22;70622;50.886;3.890;2024-03-02T15:54:53;12.50;99.90
81136;DHT22;70622;50.886;3.890;2024-03-02T15:57:20;12.40;99.90
81136;DHT22;70622;50.886;3.890;2024-03-02T15:59:46;12.40;99.90
81136;DHT22;70622;50.886;3.890;2024-03-02T16:02:11;12.40;99.90
81136;DHT22;70622;50.886;3.890;2024-03-02T16:04:37;12.60;99.90
81136;DHT22;70622;50.886;3.890;2024-03-02T16:07:03;12.60;99.90
81136;DHT22;70622;50.886;3.890;2024-03-02T16:09:29;12.50;99.90
81136;DHT22;70622;50.886;3.890;2024-03-02T16:11:54;12.30;99.90
81136;DHT22;70622;50.886;3.890;2024-03-02T16:14:20;12.30;99.90
81136;DHT22;70622;50.886;3.890;2024-03-02T16:16:45;12.30;99.90
81136;DHT22;70622;50.886;3.890;2024-03-02T16:19:11;12.30;99.90
81136;DHT22;70622;50.886;3.890;2024-03-02T16:21:37;12.30;99.90
81136;DHT22;70622;50.886;3.890;2024-03-02T16:24:03;12.20;99.90
81136;DHT22;70622;50.886;3.890;2024-03-02T16:26:28;12.10;99.90
81136;DHT22;70622;50.886;3.890;2024-03-02T16:28:54;12.00;99.90
81136;DHT22;70622;50.886;3.890;2024-03-02T16:31:20;12.00;99.90
81136;DHT22;70622;50.886;3.890;2024-03-02T16:33:45;12.00;99.90
81136;DHT22;70622;50.886;3.890;2024-03-02T16:36:11;12.10;99.90
81136;DHT22;70622;50.886;3.890;2024-03-02T16:38:36;12.10;99.90
81136;DHT22;70622;50.886;3.890;2024-03-02T16:41:03;12.00;99.90
81136;DHT22;70622;50.886;3.890;2024-03-02T16:43:28;12.00;99.90
81136;DHT22;70622;50.886;3.890;2024-03-02T16:45:54;12.10;99.90
81136;DHT22;70622;50.886;3.890;2024-03-02T16:48:19;12.10;99.90
81136;DHT22;70622;50.886;3.890;2024-03-02T16:50:45;12.00;99.90